Terminal Aerodrome Forecast
Issued by NWS

Home | Current Version | Previous Version | Text Only | Print | Product List | Glossary On
Versions: 1 2 3 4 5 6 7 8 9 10 11 12 13 14
128
FTAK31 PAJN 310544
TAFAGY
TAF
PAGY 310544Z 3106/0106 21008KT P6SM BKN060
     FM310900 VRB04KT P6SM SCT060 BKN200
     FM312000 21012KT P6SM BKN060 BKN150
      AMD LTD TO CLD VIS AND WIND=

USA.gov is the U.S. government's official web portal to all federal, state and local government web resources and services.